createdAt,value
2024-01-11T00:00:17.568Z,41.130943
2024-01-11T00:05:17.396Z,41.440668
2024-01-11T00:10:17.168Z,41.440668
2024-01-11T00:15:17.151Z,41.033134
2024-01-11T00:20:17.324Z,40.935325
2024-01-11T00:25:17.345Z,40.935325
2024-01-11T00:30:17.430Z,40.935325
2024-01-11T00:35:17.207Z,40.837516
2024-01-11T00:40:17.190Z,41.146825
2024-01-11T00:45:17.132Z,40.950928
2024-01-11T00:50:17.116Z,41.158647
2024-01-11T00:55:17.360Z,40.852978
2024-01-11T01:00:17.094Z,40.852978
2024-01-11T01:05:17.627Z,40.755028
2024-01-11T01:10:17.853Z,40.657078
2024-01-11T01:15:17.366Z,40.864384
2024-01-11T01:20:17.243Z,40.864384
2024-01-11T01:25:17.416Z,41.166491
2024-01-11T01:30:17.734Z,41.465515
2024-01-11T01:35:17.764Z,41.268798
2024-01-11T01:40:17.694Z,41.268798
2024-01-11T01:45:18.433Z,41.268798
2024-01-11T01:50:18.645Z,41.268798
2024-01-11T01:55:17.443Z,41.170439
2024-01-11T02:00:17.306Z,41.072079
2024-01-11T02:05:17.405Z,41.367556
2024-01-11T02:10:17.473Z,41.269063
2024-01-11T02:15:17.539Z,41.269063
2024-01-11T02:20:17.394Z,41.269063
2024-01-11T02:25:17.603Z,41.367556
2024-01-11T02:30:17.359Z,41.269063
2024-01-11T02:35:17.648Z,41.269063
2024-01-11T02:40:17.982Z,41.269063
2024-01-11T02:45:17.881Z,41.170570
2024-01-11T02:50:17.541Z,41.170570
2024-01-11T02:55:17.630Z,40.776998
2024-01-11T03:00:17.581Z,40.776998
2024-01-11T03:05:17.913Z,40.776998
2024-01-11T03:10:17.663Z,40.776998
2024-01-11T03:15:17.988Z,40.577140
2024-01-11T03:20:18.021Z,40.577140
2024-01-11T03:25:17.737Z,40.478914
2024-01-11T03:30:18.031Z,40.380687
2024-01-11T03:35:17.823Z,40.282459
2024-01-11T03:40:18.511Z,40.184232
2024-01-11T03:45:19.229Z,40.086004
2024-01-11T03:50:19.071Z,39.883481
2024-01-11T03:55:17.751Z,39.883481
2024-01-11T04:00:17.595Z,40.282459
2024-01-11T04:05:17.789Z,39.981574
2024-01-11T04:10:17.797Z,39.981574
2024-01-11T04:15:17.622Z,39.883481
2024-01-11T04:20:17.699Z,39.785389
2024-01-11T04:25:18.225Z,39.889546
2024-01-11T04:30:17.885Z,39.889546
2024-01-11T04:35:17.865Z,39.791317
2024-01-11T04:40:17.803Z,39.889546
2024-01-11T04:45:17.803Z,39.693088
2024-01-11T04:50:20.095Z,39.594857
2024-01-11T04:55:18.961Z,39.398396
2024-01-11T05:00:19.230Z,39.695006
2024-01-11T05:05:19.089Z,39.596640
2024-01-11T05:10:18.886Z,39.596640
2024-01-11T05:15:18.851Z,39.596640
2024-01-11T05:20:18.834Z,39.498275
2024-01-11T05:25:16.917Z,39.201933
2024-01-11T05:30:18.847Z,38.600014
2024-01-11T05:35:17.211Z,38.404093
2024-01-11T05:40:16.980Z,38.306132
2024-01-11T05:45:20.833Z,38.510146
2024-01-11T05:50:18.148Z,38.110208
2024-01-11T05:55:17.202Z,38.110208
2024-01-11T06:00:16.899Z,38.110208
2024-01-11T06:05:17.090Z,38.110208
2024-01-11T06:10:18.624Z,38.012245
2024-01-11T06:15:16.969Z,37.816318
2024-01-11T06:20:17.065Z,37.718354
2024-01-11T06:25:17.471Z,37.620389
2024-01-11T06:30:17.126Z,37.718354
2024-01-11T06:35:17.142Z,37.424459
2024-01-11T06:40:17.695Z,37.120394
2024-01-11T06:45:17.632Z,37.326493
2024-01-11T06:50:17.172Z,37.424459
2024-01-11T06:55:17.523Z,37.326493
2024-01-11T07:00:17.225Z,37.228527
2024-01-11T07:05:17.384Z,37.130560
2024-01-11T07:10:17.291Z,37.032592
2024-01-11T07:15:17.119Z,36.934625
2024-01-11T07:20:17.993Z,37.136726
2024-01-11T07:25:17.892Z,36.738688
2024-01-11T07:30:17.199Z,36.542749
2024-01-11T07:35:19.266Z,36.444779
2024-01-11T07:40:17.295Z,36.346808
2024-01-11T07:45:18.446Z,36.646199
2024-01-11T07:50:19.007Z,36.548092
2024-01-11T07:55:17.616Z,36.449985
2024-01-11T08:00:17.191Z,36.253770
2024-01-11T08:05:17.683Z,36.253770
2024-01-11T08:10:17.476Z,36.057552
2024-01-11T08:15:17.365Z,35.959443
2024-01-11T08:20:17.403Z,35.861333
2024-01-11T08:25:17.945Z,36.058311
2024-01-11T08:30:17.674Z,36.058311
2024-01-11T08:35:17.587Z,35.665113
2024-01-11T08:40:20.225Z,35.567002
2024-01-11T08:45:17.476Z,35.567002
2024-01-11T08:50:19.214Z,35.665330
2024-01-11T08:55:17.564Z,35.272666
2024-01-11T09:00:17.845Z,35.567083
2024-01-11T09:05:17.820Z,35.567083
2024-01-11T09:10:17.458Z,35.567083
2024-01-11T09:15:18.100Z,35.272666
2024-01-11T09:20:18.035Z,35.272666
2024-01-11T09:25:17.759Z,35.174553
2024-01-11T09:30:17.707Z,35.174553
2024-01-11T09:35:18.724Z,35.174553
2024-01-11T09:40:17.950Z,35.076440
2024-01-11T09:45:18.900Z,35.076440
2024-01-11T09:50:19.588Z,35.272342
2024-01-11T09:55:18.129Z,35.272342
2024-01-11T10:00:17.617Z,35.174094
2024-01-11T10:05:18.488Z,35.272342
2024-01-11T10:10:18.113Z,35.272342
2024-01-11T10:15:17.702Z,35.370589
2024-01-11T10:20:18.734Z,35.272342
2024-01-11T10:25:17.775Z,35.272342
2024-01-11T10:30:18.551Z,35.272342
2024-01-11T10:35:17.742Z,35.272342
2024-01-11T10:40:17.795Z,35.272342
2024-01-11T10:45:18.086Z,35.760113
2024-01-11T10:50:18.058Z,35.468836
2024-01-11T10:55:17.968Z,35.468836
2024-01-11T11:00:17.751Z,35.567083
2024-01-11T11:05:18.014Z,35.567083
2024-01-11T11:10:18.041Z,35.567083
2024-01-11T11:15:17.844Z,35.174553
2024-01-11T11:20:18.205Z,35.468836
2024-01-11T11:25:19.790Z,35.174553
2024-01-11T11:30:17.786Z,35.174553
2024-01-11T11:35:17.865Z,35.468836
2024-01-11T11:40:18.026Z,35.174553
2024-01-11T11:45:18.596Z,35.567083
2024-01-11T11:50:19.824Z,35.468836
2024-01-11T11:55:18.019Z,35.567083
2024-01-11T12:00:17.963Z,35.272666
2024-01-11T12:05:18.254Z,35.567083
2024-01-11T12:10:18.161Z,35.272666
2024-01-11T12:15:18.095Z,35.272666
2024-01-11T12:20:18.471Z,35.567083
2024-01-11T12:25:19.026Z,35.665330
2024-01-11T12:30:18.088Z,35.370778
2024-01-11T12:35:18.229Z,35.370778
2024-01-11T12:40:18.197Z,35.370778
2024-01-11T12:45:18.143Z,35.665330
2024-01-11T12:50:18.117Z,35.665330
2024-01-11T12:55:18.297Z,35.763575
2024-01-11T13:00:18.560Z,35.468890
2024-01-11T13:05:18.304Z,35.370778
2024-01-11T13:10:18.210Z,35.763575
2024-01-11T13:15:18.188Z,35.468890
2024-01-11T13:20:18.119Z,35.468890
2024-01-11T13:25:18.407Z,35.567002
2024-01-11T13:30:18.314Z,35.269103
2024-01-11T13:35:18.716Z,35.269103
2024-01-11T13:40:18.651Z,35.367078
2024-01-11T13:45:18.623Z,35.763223
2024-01-11T13:50:21.165Z,35.367078
2024-01-11T13:55:18.535Z,35.465053
2024-01-11T14:00:18.433Z,35.563028
2024-01-11T14:05:18.372Z,35.563028
2024-01-11T14:10:18.992Z,35.563028
2024-01-11T14:15:18.399Z,35.563028
2024-01-11T14:20:18.566Z,35.758976
2024-01-11T14:25:18.703Z,35.457243
2024-01-11T14:30:18.481Z,35.758976
2024-01-11T14:35:18.572Z,36.155661
2024-01-11T14:40:18.636Z,35.856949
2024-01-11T14:45:18.864Z,36.253770
2024-01-11T14:50:18.495Z,35.954922
2024-01-11T14:55:19.055Z,35.555080
2024-01-11T15:00:18.446Z,35.555080
2024-01-11T15:05:18.498Z,35.954922
2024-01-11T15:10:18.568Z,35.652915
2024-01-11T15:15:18.414Z,36.052894
2024-01-11T15:20:19.075Z,36.150866
2024-01-11T15:25:19.252Z,35.848586
2024-01-11T15:30:18.595Z,36.248837
2024-01-11T15:35:18.572Z,35.946420
2024-01-11T15:40:18.584Z,35.946420
2024-01-11T15:45:20.074Z,36.044254
2024-01-11T15:50:20.520Z,36.142087
2024-01-11T15:55:18.906Z,36.640719
2024-01-11T16:00:18.645Z,36.337752
2024-01-11T16:05:18.813Z,36.836656
2024-01-11T16:10:19.157Z,36.533416
2024-01-11T16:15:18.656Z,36.226932
2024-01-11T16:20:18.819Z,36.226932
2024-01-11T16:25:19.256Z,36.226932
2024-01-11T16:30:18.846Z,36.729077
2024-01-11T16:35:19.801Z,36.422316
2024-01-11T16:40:18.858Z,36.226932
2024-01-11T16:45:18.836Z,36.129239
2024-01-11T16:50:18.919Z,36.813078
2024-01-11T16:55:19.331Z,36.599984
2024-01-11T17:00:19.014Z,36.502435
2024-01-11T17:05:18.837Z,36.404885
2024-01-11T17:10:18.975Z,36.209785
2024-01-11T17:15:18.999Z,36.520007
2024-01-11T17:20:18.874Z,36.520007
2024-01-11T17:25:19.259Z,36.617698
2024-01-11T17:30:19.058Z,36.617698
2024-01-11T17:35:19.340Z,36.813078
2024-01-11T17:40:17.235Z,37.106144
2024-01-11T17:45:18.140Z,36.892627
2024-01-11T17:50:18.435Z,36.892627
2024-01-11T17:55:17.400Z,37.203832
2024-01-11T18:00:16.981Z,37.399205
2024-01-11T18:05:17.024Z,37.496891
2024-01-11T18:10:17.649Z,37.594577
2024-01-11T18:15:17.315Z,37.282811
2024-01-11T18:20:17.164Z,37.496891
2024-01-11T18:25:17.086Z,37.594577
2024-01-11T18:30:17.230Z,37.282811
2024-01-11T18:35:17.377Z,37.185266
2024-01-11T18:40:17.777Z,37.185266
2024-01-11T18:45:17.340Z,37.185266
2024-01-11T18:50:17.405Z,36.870226
2024-01-11T18:55:17.984Z,37.282811
2024-01-11T19:00:17.046Z,37.282811
2024-01-11T19:05:18.579Z,37.282811
2024-01-11T19:10:17.310Z,37.282811
2024-01-11T19:15:17.245Z,37.282811
2024-01-11T19:20:17.562Z,37.282811
2024-01-11T19:25:17.397Z,37.594577
2024-01-11T19:30:17.312Z,37.594577
2024-01-11T19:35:17.376Z,37.380356
2024-01-11T19:40:17.258Z,37.380356
2024-01-11T19:45:18.578Z,37.380356
2024-01-11T19:50:19.021Z,37.380356
2024-01-11T19:55:17.945Z,37.770528
2024-01-11T20:00:17.546Z,37.746833
2024-01-11T20:05:17.309Z,37.746833
2024-01-11T20:10:17.421Z,37.649435
2024-01-11T20:15:17.316Z,37.649435
2024-01-11T20:20:17.261Z,38.063152
2024-01-11T20:25:17.932Z,38.160692
2024-01-11T20:30:17.330Z,38.063152
2024-01-11T20:35:17.432Z,38.063152
2024-01-11T20:40:17.429Z,38.063152
2024-01-11T20:45:17.696Z,38.376043
2024-01-11T20:50:17.454Z,38.278361
2024-01-11T20:55:17.522Z,38.278361
2024-01-11T21:00:17.725Z,37.868070
2024-01-11T21:05:17.686Z,38.180679
2024-01-11T21:10:18.374Z,37.770528
2024-01-11T21:15:17.501Z,37.770528
2024-01-11T21:20:17.793Z,37.575443
2024-01-11T21:25:17.747Z,37.380356
2024-01-11T21:30:17.541Z,37.282811
2024-01-11T21:35:18.515Z,37.399205
2024-01-11T21:40:18.408Z,37.707355
2024-01-11T21:45:18.796Z,37.511703
2024-01-11T21:50:18.416Z,37.413877
2024-01-11T21:55:17.611Z,37.316050
2024-01-11T22:00:17.809Z,37.424459
2024-01-11T22:05:17.596Z,37.326493
2024-01-11T22:10:18.037Z,37.130560
2024-01-11T22:15:17.736Z,37.032592
2024-01-11T22:20:18.113Z,36.934625
2024-01-11T22:25:18.223Z,36.836656
2024-01-11T22:30:17.770Z,36.836656
2024-01-11T22:35:17.720Z,36.836656
2024-01-11T22:40:17.804Z,37.136726
2024-01-11T22:45:18.478Z,37.038622
2024-01-11T22:50:17.793Z,36.940517
2024-01-11T22:55:18.077Z,36.842411
2024-01-11T23:00:17.817Z,36.842411
2024-01-11T23:05:17.952Z,36.842411
2024-01-11T23:10:17.969Z,36.646199
2024-01-11T23:15:17.942Z,36.942496
2024-01-11T23:20:18.212Z,36.942496
2024-01-11T23:25:18.054Z,36.844255
2024-01-11T23:30:18.119Z,36.844255
2024-01-11T23:35:17.895Z,36.746013
2024-01-11T23:40:18.383Z,36.647771
2024-01-11T23:45:19.030Z,36.746013
2024-01-11T23:50:19.889Z,36.746013
2024-01-11T23:55:18.060Z,36.647771
